createdAt,value
2018-09-08T00:02:33.095Z,4.1
2018-09-08T00:19:20.072Z,4.1
2018-09-08T00:36:07.080Z,4.1
2018-09-08T00:52:54.049Z,4.1
2018-09-08T01:09:41.044Z,4.1
2018-09-08T01:26:28.115Z,4.1
2018-09-08T01:43:15.023Z,4.0
2018-09-08T02:00:01.961Z,4.0
2018-09-08T02:16:48.908Z,4.0
2018-09-08T02:33:35.842Z,4.0
2018-09-08T02:50:22.601Z,4.0
2018-09-08T03:07:09.423Z,4.0
2018-09-08T03:23:56.307Z,4.0
2018-09-08T03:40:43.113Z,3.9
2018-09-08T03:57:29.766Z,3.9
2018-09-08T04:14:16.323Z,3.9
2018-09-08T04:31:03.105Z,3.9
2018-09-08T04:47:49.645Z,3.9
2018-09-08T05:04:35.980Z,3.9
2018-09-08T05:21:22.629Z,3.9
2018-09-08T05:38:09.154Z,3.9
2018-09-08T05:54:56.155Z,4.0
2018-09-08T06:11:42.259Z,4.1
2018-09-08T06:28:28.900Z,4.2
2018-09-08T06:45:16.038Z,4.4
2018-09-08T07:02:03.199Z,4.5
2018-09-08T07:18:50.278Z,4.5
2018-09-08T07:35:37.712Z,4.5
2018-09-08T07:52:24.992Z,4.5
2018-09-08T08:09:12.131Z,4.6
2018-09-08T08:25:59.527Z,4.6
2018-09-08T08:42:47.137Z,4.6
2018-09-08T08:59:34.795Z,4.6
2018-09-08T09:16:22.493Z,4.6
2018-09-08T09:33:10.350Z,4.6
2018-09-08T09:49:58.168Z,4.6
2018-09-08T10:06:46.190Z,4.6
2018-09-08T10:23:34.404Z,4.6
2018-09-08T10:40:22.477Z,4.6
2018-09-08T10:57:10.706Z,4.5
2018-09-08T11:13:58.749Z,4.6
2018-09-08T11:30:47.154Z,4.6
2018-09-08T11:47:35.937Z,4.6
2018-09-08T12:04:24.197Z,4.6
2018-09-08T12:21:12.852Z,4.6
2018-09-08T12:38:01.606Z,4.6
2018-09-08T12:54:51.019Z,4.6
2018-09-08T13:11:39.602Z,4.6
2018-09-08T13:28:28.499Z,4.6
2018-09-08T13:45:17.388Z,4.5
2018-09-08T14:02:06.279Z,4.6
2018-09-08T14:18:55.540Z,4.5
2018-09-08T14:35:44.891Z,4.5
2018-09-08T14:52:32.928Z,4.5
2018-09-08T15:09:21.542Z,4.5
2018-09-08T15:26:10.429Z,4.5
2018-09-08T15:42:59.140Z,4.5
2018-09-08T15:59:47.843Z,4.4
2018-09-08T16:16:36.579Z,4.4
2018-09-08T16:33:26.211Z,4.4
2018-09-08T16:50:13.752Z,4.4
2018-09-08T17:07:04.160Z,4.4
2018-09-08T17:23:50.757Z,4.4
2018-09-08T17:40:39.156Z,4.3
2018-09-08T17:57:27.775Z,4.3
2018-09-08T18:14:16.185Z,4.3
2018-09-08T18:31:05.291Z,4.3
2018-09-08T18:47:53.737Z,4.2
2018-09-08T19:04:40.689Z,4.2
2018-09-08T19:21:28.321Z,4.2
2018-09-08T19:38:15.808Z,4.2
2018-09-08T19:55:04.152Z,4.2
2018-09-08T20:11:51.092Z,4.2
2018-09-08T20:28:38.663Z,4.2
2018-09-08T20:45:26.099Z,4.2
2018-09-08T21:02:13.550Z,4.2
2018-09-08T21:19:01.196Z,4.2
2018-09-08T21:35:48.228Z,4.1
2018-09-08T21:52:36.240Z,4.1
2018-09-08T22:09:22.873Z,4.1
2018-09-08T22:26:10.192Z,4.1
2018-09-08T22:42:57.475Z,4.1
2018-09-08T22:59:44.914Z,4.1
2018-09-08T23:16:32.092Z,4.1
2018-09-08T23:33:19.265Z,4.1
2018-09-08T23:50:06.357Z,4.1
